الصفحة الرئيسية
METAR-TAF:

METAR-TAF

مطار :

مطار الأميرة جوليانا الدولي

Sint Maarten, جزر الأنتيل الهولندية

دائرة عرض: 18-03N, خط طول: 063-07W, ارتفاع: 4 متر

مراقبة الطقس الحالي

تاريخ ووقت الإصدار 5 دقيقة قبل الساعة 14:00UTC
ريح 12 عقدة من الشرق
درجة الحرارة 30°درجة مئوية
الرطوبة 66%
ضغط 1018 hPa
الرؤية 10 كم أو أكثر
غيوم متفرقة على ارتفاع 2000 قدم

METAR: TNCM 251400Z 09012KT 9999 SCT020 30/23 Q1018 NOSIG

زمن: 10:05 (14:05 UTC)

توقعات

تاريخ ووقت الإصدار 3ساعات و 5 دقيقة قبل الساعة 11:00UTC
التوقعات صالحة من25 الساعة 12 UTC إلى 26 الساعة 12 UTC
ريح 8 عقدة من الشرق
الرؤية 10 كم أو أكثر
غيوم قليلة على ارتفاع 1800 قدم

TAF: TNCM 251100Z 2512/2612 09008KT 9999 FEW018

أرصاد الطقس والتوقعات من أكثر من 4000 مطار (تقارير الطقس للمطار METAR والتنبؤ بالطقس بالمطارTAF).

المحطات المتاحة هي النقط الصفراء والحمراء على الخريطة.

حرك المؤشر فوق النقطة لمعرفة اسم المحطة.

ثم انقر لمعرفة أرصاد وتوقعات الطقس.

لتغيير الخارطة: اضغط على الأزرار الخضراء مع رمز الصليب الأسود للتكبير. على الزر الأخضر مع شرطة للتصغير، أو على الأسهم الخضراء للخرائط المجاورة.


METAR-TAF: